sensor_id;sensor_type;location;lat;lon;timestamp;pressure;altitude;pressure_sealevel;temperature;humidity
77161;BME280;66135;0.000;0.000;2023-02-11T00:01:36;103355.94;;;18.48;52.37
77161;BME280;66135;0.000;0.000;2023-02-11T00:04:01;103348.06;;;18.45;52.47
77161;BME280;66135;0.000;0.000;2023-02-11T00:06:28;103334.59;;;18.44;52.13
77161;BME280;66135;0.000;0.000;2023-02-11T00:08:55;103331.25;;;18.40;52.55
77161;BME280;66135;0.000;0.000;2023-02-11T00:11:21;103325.91;;;18.39;52.47
77161;BME280;66135;0.000;0.000;2023-02-11T00:13:47;103323.19;;;18.39;52.43
77161;BME280;66135;0.000;0.000;2023-02-11T00:16:15;103317.78;;;18.39;52.39
77161;BME280;66135;0.000;0.000;2023-02-11T00:18:41;103324.06;;;18.39;52.37
77161;BME280;66135;0.000;0.000;2023-02-11T00:21:13;103320.59;;;18.37;52.46
77161;BME280;66135;0.000;0.000;2023-02-11T00:23:39;103312.59;;;18.36;52.54
77161;BME280;66135;0.000;0.000;2023-02-11T00:26:16;103315.38;;;18.34;52.51
77161;BME280;66135;0.000;0.000;2023-02-11T00:28:42;103308.88;;;18.37;52.28
77161;BME280;66135;0.000;0.000;2023-02-11T00:31:08;103301.19;;;18.31;52.27
77161;BME280;66135;0.000;0.000;2023-02-11T00:33:34;103296.50;;;18.33;52.30
77161;BME280;66135;0.000;0.000;2023-02-11T00:36:03;103300.47;;;18.29;52.27
77161;BME280;66135;0.000;0.000;2023-02-11T00:38:29;103312.16;;;18.29;52.35
77161;BME280;66135;0.000;0.000;2023-02-11T00:40:55;103301.44;;;18.28;52.19
77161;BME280;66135;0.000;0.000;2023-02-11T00:43:20;103292.41;;;18.27;52.10
77161;BME280;66135;0.000;0.000;2023-02-11T00:45:45;103296.50;;;18.22;52.25
77161;BME280;66135;0.000;0.000;2023-02-11T00:48:11;103295.63;;;18.21;52.48
77161;BME280;66135;0.000;0.000;2023-02-11T00:50:36;103294.84;;;18.19;52.18
77161;BME280;66135;0.000;0.000;2023-02-11T00:53:02;103291.16;;;18.20;52.38
77161;BME280;66135;0.000;0.000;2023-02-11T00:55:27;103294.09;;;18.17;52.36
77161;BME280;66135;0.000;0.000;2023-02-11T00:57:52;103295.84;;;18.18;52.21
77161;BME280;66135;0.000;0.000;2023-02-11T01:00:18;103292.50;;;18.15;52.29
77161;BME280;66135;0.000;0.000;2023-02-11T01:02:43;103295.44;;;18.12;52.46
77161;BME280;66135;0.000;0.000;2023-02-11T01:05:08;103304.44;;;18.12;52.47
77161;BME280;66135;0.000;0.000;2023-02-11T01:07:34;103303.69;;;18.10;52.10
77161;BME280;66135;0.000;0.000;2023-02-11T01:09:59;103303.03;;;18.07;52.22
77161;BME280;66135;0.000;0.000;2023-02-11T01:12:25;103311.06;;;18.08;52.28
77161;BME280;66135;0.000;0.000;2023-02-11T01:14:50;103302.09;;;18.08;52.27
77161;BME280;66135;0.000;0.000;2023-02-11T01:17:16;103306.75;;;18.06;52.32
77161;BME280;66135;0.000;0.000;2023-02-11T01:19:41;103307.06;;;18.01;52.59
77161;BME280;66135;0.000;0.000;2023-02-11T01:22:07;103320.13;;;17.96;52.56
77161;BME280;66135;0.000;0.000;2023-02-11T01:24:32;103315.69;;;17.95;52.42
77161;BME280;66135;0.000;0.000;2023-02-11T01:26:58;103315.56;;;17.96;52.23
77161;BME280;66135;0.000;0.000;2023-02-11T01:29:23;103303.97;;;17.94;52.52
77161;BME280;66135;0.000;0.000;2023-02-11T01:31:49;103306.81;;;17.93;52.41
77161;BME280;66135;0.000;0.000;2023-02-11T01:34:14;103305.16;;;17.90;52.34
77161;BME280;66135;0.000;0.000;2023-02-11T01:36:40;103315.16;;;17.90;52.52
77161;BME280;66135;0.000;0.000;2023-02-11T01:39:06;103319.59;;;17.91;52.31
77161;BME280;66135;0.000;0.000;2023-02-11T01:41:33;103326.88;;;17.90;52.44
77161;BME280;66135;0.000;0.000;2023-02-11T01:46:49;103310.72;;;17.89;52.31
77161;BME280;66135;0.000;0.000;2023-02-11T01:49:20;103307.03;;;17.90;52.27
77161;BME280;66135;0.000;0.000;2023-02-11T01:54:49;103296.31;;;17.88;52.09
77161;BME280;66135;0.000;0.000;2023-02-11T01:57:36;103294.69;;;17.86;52.35
77161;BME280;66135;0.000;0.000;2023-02-11T02:00:16;103296.50;;;17.85;52.36
77161;BME280;66135;0.000;0.000;2023-02-11T02:02:49;103300.97;;;17.86;52.42
77161;BME280;66135;0.000;0.000;2023-02-11T02:05:40;103283.06;;;17.84;52.43
77161;BME280;66135;0.000;0.000;2023-02-11T02:08:52;103267.91;;;17.81;52.37
77161;BME280;66135;0.000;0.000;2023-02-11T02:11:20;103273.47;;;17.80;52.45
77161;BME280;66135;0.000;0.000;2023-02-11T02:13:46;103278.75;;;17.81;52.41
77161;BME280;66135;0.000;0.000;2023-02-11T02:16:13;103281.69;;;17.78;52.59
77161;BME280;66135;0.000;0.000;2023-02-11T02:24:40;103285.63;;;17.74;52.52
77161;BME280;66135;0.000;0.000;2023-02-11T02:37:55;103272.63;;;17.67;52.53
77161;BME280;66135;0.000;0.000;2023-02-11T02:40:31;103274.47;;;17.66;52.67
77161;BME280;66135;0.000;0.000;2023-02-11T02:42:59;103285.19;;;17.68;52.56
77161;BME280;66135;0.000;0.000;2023-02-11T02:45:26;103283.47;;;17.67;52.73
77161;BME280;66135;0.000;0.000;2023-02-11T02:47:51;103287.16;;;17.66;52.61
77161;BME280;66135;0.000;0.000;2023-02-11T02:50:21;103275.56;;;17.64;52.68
77161;BME280;66135;0.000;0.000;2023-02-11T02:56:10;103268.50;;;17.61;52.62
77161;BME280;66135;0.000;0.000;2023-02-11T02:58:50;103263.09;;;17.61;52.73
77161;BME280;66135;0.000;0.000;2023-02-11T03:01:30;103260.63;;;17.58;52.79
77161;BME280;66135;0.000;0.000;2023-02-11T03:04:28;103269.63;;;17.59;52.65
77161;BME280;66135;0.000;0.000;2023-02-11T03:09:42;103268.09;;;17.55;52.70
77161;BME280;66135;0.000;0.000;2023-02-11T03:12:10;103262.69;;;17.55;53.03
77161;BME280;66135;0.000;0.000;2023-02-11T03:14:37;103273.66;;;17.53;52.77
77161;BME280;66135;0.000;0.000;2023-02-11T03:17:05;103261.06;;;17.52;52.84
77161;BME280;66135;0.000;0.000;2023-02-11T03:19:38;103260.22;;;17.52;52.81
77161;BME280;66135;0.000;0.000;2023-02-11T03:22:11;103253.03;;;17.51;52.64
77161;BME280;66135;0.000;0.000;2023-02-11T03:24:37;103258.56;;;17.49;52.99
77161;BME280;66135;0.000;0.000;2023-02-11T03:27:46;103256.75;;;17.50;52.92
77161;BME280;66135;0.000;0.000;2023-02-11T03:30:20;103252.47;;;17.46;52.93
77161;BME280;66135;0.000;0.000;2023-02-11T03:32:51;103257.91;;;17.46;52.85
77161;BME280;66135;0.000;0.000;2023-02-11T03:35:44;103258.88;;;17.45;52.89
77161;BME280;66135;0.000;0.000;2023-02-11T03:38:16;103267.03;;;17.45;53.10
77161;BME280;66135;0.000;0.000;2023-02-11T03:40:46;103258.13;;;17.43;52.83
77161;BME280;66135;0.000;0.000;2023-02-11T03:43:41;103258.25;;;17.41;53.10
77161;BME280;66135;0.000;0.000;2023-02-11T03:46:09;103272.63;;;17.42;53.18
77161;BME280;66135;0.000;0.000;2023-02-11T03:48:39;103268.22;;;17.41;52.88
77161;BME280;66135;0.000;0.000;2023-02-11T03:51:08;103269.28;;;17.38;53.14
77161;BME280;66135;0.000;0.000;2023-02-11T03:53:36;103275.59;;;17.39;53.03
77161;BME280;66135;0.000;0.000;2023-02-11T03:56:06;103264.84;;;17.37;53.11
77161;BME280;66135;0.000;0.000;2023-02-11T03:58:33;103263.13;;;17.36;53.17
77161;BME280;66135;0.000;0.000;2023-02-11T04:00:59;103265.94;;;17.35;53.08
77161;BME280;66135;0.000;0.000;2023-02-11T04:03:26;103261.50;;;17.34;53.16
77161;BME280;66135;0.000;0.000;2023-02-11T04:05:51;103261.63;;;17.32;53.07
77161;BME280;66135;0.000;0.000;2023-02-11T04:08:17;103257.16;;;17.31;53.16
77161;BME280;66135;0.000;0.000;2023-02-11T04:10:42;103269.09;;;17.29;53.21
77161;BME280;66135;0.000;0.000;2023-02-11T04:13:08;103266.41;;;17.29;53.11
77161;BME280;66135;0.000;0.000;2023-02-11T04:15:33;103254.81;;;17.27;53.26
77161;BME280;66135;0.000;0.000;2023-02-11T04:17:58;103250.25;;;17.27;53.13
77161;BME280;66135;0.000;0.000;2023-02-11T04:20:24;103246.66;;;17.27;53.28
77161;BME280;66135;0.000;0.000;2023-02-11T04:22:49;103241.38;;;17.25;53.12
77161;BME280;66135;0.000;0.000;2023-02-11T04:25:14;103237.03;;;17.23;53.16
77161;BME280;66135;0.000;0.000;2023-02-11T04:27:40;103231.53;;;17.24;53.32
77161;BME280;66135;0.000;0.000;2023-02-11T04:30:06;103241.59;;;17.22;53.14
77161;BME280;66135;0.000;0.000;2023-02-11T04:32:32;103237.91;;;17.23;53.24
77161;BME280;66135;0.000;0.000;2023-02-11T04:34:57;103226.31;;;17.21;53.18
77161;BME280;66135;0.000;0.000;2023-02-11T04:37:22;103230.88;;;17.21;53.33
77161;BME280;66135;0.000;0.000;2023-02-11T04:39:48;103228.19;;;17.21;53.13
77161;BME280;66135;0.000;0.000;2023-02-11T04:42:13;103232.94;;;17.17;53.27
77161;BME280;66135;0.000;0.000;2023-02-11T04:44:39;103246.50;;;17.17;53.22
77161;BME280;66135;0.000;0.000;2023-02-11T04:47:04;103241.06;;;17.17;53.35
77161;BME280;66135;0.000;0.000;2023-02-11T04:49:29;103251.03;;;17.17;53.21
77161;BME280;66135;0.000;0.000;2023-02-11T04:51:55;103243.88;;;17.16;53.21
77161;BME280;66135;0.000;0.000;2023-02-11T04:54:20;103243.34;;;17.11;53.30
77161;BME280;66135;0.000;0.000;2023-02-11T04:56:46;103246.81;;;17.13;53.40
77161;BME280;66135;0.000;0.000;2023-02-11T04:59:12;103241.38;;;17.13;53.43
77161;BME280;66135;0.000;0.000;2023-02-11T05:01:38;103244.97;;;17.13;53.30
77161;BME280;66135;0.000;0.000;2023-02-11T05:04:04;103249.50;;;17.13;53.40
77161;BME280;66135;0.000;0.000;2023-02-11T05:06:29;103252.44;;;17.10;53.30
77161;BME280;66135;0.000;0.000;2023-02-11T05:08:54;103244.44;;;17.08;53.48
77161;BME280;66135;0.000;0.000;2023-02-11T05:11:22;103246.16;;;17.09;53.40
77161;BME280;66135;0.000;0.000;2023-02-11T05:13:48;103249.22;;;17.05;53.50
77161;BME280;66135;0.000;0.000;2023-02-11T05:16:14;103255.38;;;17.07;53.35
77161;BME280;66135;0.000;0.000;2023-02-11T05:18:41;103255.38;;;17.07;53.35
77161;BME280;66135;0.000;0.000;2023-02-11T05:21:10;103249.09;;;17.06;53.37
77161;BME280;66135;0.000;0.000;2023-02-11T05:23:36;103232.97;;;17.05;53.40
77161;BME280;66135;0.000;0.000;2023-02-11T05:26:01;103248.34;;;17.04;53.42
77161;BME280;66135;0.000;0.000;2023-02-11T05:28:27;103249.31;;;17.03;53.51
77161;BME280;66135;0.000;0.000;2023-02-11T05:30:53;103241.19;;;17.03;53.35
77161;BME280;66135;0.000;0.000;2023-02-11T05:33:18;103232.31;;;17.01;53.27
77161;BME280;66135;0.000;0.000;2023-02-11T05:35:44;103233.16;;;17.02;53.49
77161;BME280;66135;0.000;0.000;2023-02-11T05:38:09;103228.09;;;16.97;53.53
77161;BME280;66135;0.000;0.000;2023-02-11T05:40:35;103232.72;;;16.95;53.66
77161;BME280;66135;0.000;0.000;2023-02-11T05:43:00;103229.16;;;16.95;53.84
77161;BME280;66135;0.000;0.000;2023-02-11T05:45:25;103237.38;;;16.93;53.97
77161;BME280;66135;0.000;0.000;2023-02-11T05:47:51;103233.84;;;16.93;53.89
77161;BME280;66135;0.000;0.000;2023-02-11T05:50:16;103235.34;;;16.97;53.89
77161;BME280;66135;0.000;0.000;2023-02-11T05:52:42;103230.91;;;16.96;54.10
77161;BME280;66135;0.000;0.000;2023-02-11T05:55:07;103234.56;;;16.95;54.04
77161;BME280;66135;0.000;0.000;2023-02-11T05:57:33;103234.78;;;16.92;54.46
77161;BME280;66135;0.000;0.000;2023-02-11T05:59:58;103239.25;;;16.93;54.67
77161;BME280;66135;0.000;0.000;2023-02-11T06:02:23;103235.66;;;16.92;54.70
77161;BME280;66135;0.000;0.000;2023-02-11T06:04:49;103236.66;;;16.91;54.73
77161;BME280;66135;0.000;0.000;2023-02-11T06:07:14;103241.09;;;16.92;54.83
77161;BME280;66135;0.000;0.000;2023-02-11T06:09:40;103246.38;;;16.94;54.87
77161;BME280;66135;0.000;0.000;2023-02-11T06:12:05;103236.56;;;16.93;54.79
77161;BME280;66135;0.000;0.000;2023-02-11T06:14:32;103239.56;;;16.88;54.90
77161;BME280;66135;0.000;0.000;2023-02-11T06:16:58;103251.38;;;16.87;54.91
77161;BME280;66135;0.000;0.000;2023-02-11T06:19:23;103244.13;;;16.88;54.93
77161;BME280;66135;0.000;0.000;2023-02-11T06:21:49;103236.22;;;16.84;55.02
77161;BME280;66135;0.000;0.000;2023-02-11T06:24:14;103240.66;;;16.85;55.02
77161;BME280;66135;0.000;0.000;2023-02-11T06:26:40;103231.66;;;16.85;54.91
77161;BME280;66135;0.000;0.000;2023-02-11T06:29:05;103236.09;;;16.86;54.88
77161;BME280;66135;0.000;0.000;2023-02-11T06:31:30;103240.84;;;16.82;55.04
77161;BME280;66135;0.000;0.000;2023-02-11T06:33:56;103248.03;;;16.83;55.08
77161;BME280;66135;0.000;0.000;2023-02-11T06:36:22;103243.56;;;16.82;54.96
77161;BME280;66135;0.000;0.000;2023-02-11T06:38:48;103243.56;;;16.82;54.79
77161;BME280;66135;0.000;0.000;2023-02-11T06:41:15;103233.84;;;16.80;54.91
77161;BME280;66135;0.000;0.000;2023-02-11T06:43:41;103242.72;;;16.82;55.22
77161;BME280;66135;0.000;0.000;2023-02-11T06:46:07;103246.28;;;16.82;54.57
77161;BME280;66135;0.000;0.000;2023-02-11T06:48:33;103246.38;;;16.81;54.76
77161;BME280;66135;0.000;0.000;2023-02-11T06:51:06;103250.72;;;16.83;54.73
77161;BME280;66135;0.000;0.000;2023-02-11T06:53:35;103256.47;;;16.92;54.50
77161;BME280;66135;0.000;0.000;2023-02-11T06:56:02;103257.00;;;16.97;54.38
77161;BME280;66135;0.000;0.000;2023-02-11T06:58:28;103265.34;;;17.06;54.41
77161;BME280;66135;0.000;0.000;2023-02-11T07:00:54;103272.06;;;17.13;54.25
77161;BME280;66135;0.000;0.000;2023-02-11T07:03:19;103268.03;;;17.19;54.00
77161;BME280;66135;0.000;0.000;2023-02-11T07:05:45;103274.63;;;17.27;55.03
77161;BME280;66135;0.000;0.000;2023-02-11T07:08:10;103268.66;;;17.35;54.46
77161;BME280;66135;0.000;0.000;2023-02-11T07:10:35;103275.47;;;17.40;54.11
77161;BME280;66135;0.000;0.000;2023-02-11T07:13:01;103273.13;;;17.48;53.92
77161;BME280;66135;0.000;0.000;2023-02-11T07:15:26;103278.06;;;17.54;53.76
77161;BME280;66135;0.000;0.000;2023-02-11T07:17:52;103279.59;;;17.58;53.98
77161;BME280;66135;0.000;0.000;2023-02-11T07:20:17;103278.28;;;17.64;53.72
77161;BME280;66135;0.000;0.000;2023-02-11T07:22:43;103282.06;;;17.61;54.13
77161;BME280;66135;0.000;0.000;2023-02-11T07:25:08;103274.56;;;17.65;54.20
77161;BME280;66135;0.000;0.000;2023-02-11T07:27:34;103284.34;;;17.67;54.36
77161;BME280;66135;0.000;0.000;2023-02-11T07:29:59;103284.09;;;17.70;54.13
77161;BME280;66135;0.000;0.000;2023-02-11T07:32:25;103275.72;;;17.73;54.34
77161;BME280;66135;0.000;0.000;2023-02-11T07:34:50;103274.53;;;17.77;54.21
77161;BME280;66135;0.000;0.000;2023-02-11T07:37:15;103286.38;;;17.76;54.28
77161;BME280;66135;0.000;0.000;2023-02-11T07:39:41;103289.72;;;17.80;54.32
77161;BME280;66135;0.000;0.000;2023-02-11T07:42:06;103282.66;;;17.77;54.09
77161;BME280;66135;0.000;0.000;2023-02-11T07:44:32;103295.34;;;17.77;54.11
77161;BME280;66135;0.000;0.000;2023-02-11T07:46:58;103292.44;;;17.80;54.07
77161;BME280;66135;0.000;0.000;2023-02-11T07:49:24;103295.22;;;17.78;54.02
77161;BME280;66135;0.000;0.000;2023-02-11T07:51:49;103295.16;;;17.80;53.94
77161;BME280;66135;0.000;0.000;2023-02-11T07:54:16;103299.56;;;17.81;53.76
77161;BME280;66135;0.000;0.000;2023-02-11T07:56:41;103293.06;;;17.83;53.86
77161;BME280;66135;0.000;0.000;2023-02-11T07:59:07;103299.34;;;17.84;54.06
77161;BME280;66135;0.000;0.000;2023-02-11T08:01:32;103304.00;;;17.82;53.93
77161;BME280;66135;0.000;0.000;2023-02-11T08:04:00;103296.41;;;17.87;53.80
77161;BME280;66135;0.000;0.000;2023-02-11T08:06:28;103287.06;;;17.91;54.08
77161;BME280;66135;0.000;0.000;2023-02-11T08:08:53;103305.28;;;17.89;54.15
77161;BME280;66135;0.000;0.000;2023-02-11T08:11:26;103306.16;;;17.89;54.72
77161;BME280;66135;0.000;0.000;2023-02-11T08:13:54;103314.06;;;17.92;54.72
77161;BME280;66135;0.000;0.000;2023-02-11T08:16:23;103322.00;;;17.95;54.74
77161;BME280;66135;0.000;0.000;2023-02-11T08:18:50;103325.44;;;17.97;54.81
77161;BME280;66135;0.000;0.000;2023-02-11T08:21:16;103318.69;;;18.03;54.66
77161;BME280;66135;0.000;0.000;2023-02-11T08:23:43;103325.63;;;18.07;54.55
77161;BME280;66135;0.000;0.000;2023-02-11T08:26:20;103327.78;;;18.15;54.38
77161;BME280;66135;0.000;0.000;2023-02-11T08:28:48;103331.84;;;18.20;54.49
77161;BME280;66135;0.000;0.000;2023-02-11T08:31:21;103322.75;;;18.21;54.42
77161;BME280;66135;0.000;0.000;2023-02-11T08:33:47;103324.34;;;18.24;54.55
77161;BME280;66135;0.000;0.000;2023-02-11T08:36:18;103326.72;;;18.28;54.39
77161;BME280;66135;0.000;0.000;2023-02-11T08:38:44;103332.91;;;18.30;54.63
77161;BME280;66135;0.000;0.000;2023-02-11T08:41:09;103331.16;;;18.29;54.46
77161;BME280;66135;0.000;0.000;2023-02-11T08:43:35;103341.03;;;18.30;54.38
77161;BME280;66135;0.000;0.000;2023-02-11T08:46:01;103334.63;;;18.31;54.52
77161;BME280;66135;0.000;0.000;2023-02-11T08:48:27;103348.06;;;18.33;54.42
77161;BME280;66135;0.000;0.000;2023-02-11T08:50:53;103341.69;;;18.34;54.55
77161;BME280;66135;0.000;0.000;2023-02-11T08:53:19;103331.78;;;18.33;54.52
77161;BME280;66135;0.000;0.000;2023-02-11T08:55:49;103331.66;;;18.34;54.44
77161;BME280;66135;0.000;0.000;2023-02-11T08:58:14;103328.00;;;18.35;54.69
77161;BME280;66135;0.000;0.000;2023-02-11T09:00:40;103336.88;;;18.37;55.14
77161;BME280;66135;0.000;0.000;2023-02-11T09:03:08;103344.81;;;18.40;55.27
77161;BME280;66135;0.000;0.000;2023-02-11T09:05:33;103336.56;;;18.42;55.47
77161;BME280;66135;0.000;0.000;2023-02-11T09:07:58;103340.91;;;18.44;55.46
77161;BME280;66135;0.000;0.000;2023-02-11T09:10:24;103349.78;;;18.46;55.51
77161;BME280;66135;0.000;0.000;2023-02-11T09:12:49;103347.94;;;18.47;55.51
77161;BME280;66135;0.000;0.000;2023-02-11T09:15:14;103338.06;;;18.46;55.74
77161;BME280;66135;0.000;0.000;2023-02-11T09:17:40;103347.69;;;18.50;55.79
77161;BME280;66135;0.000;0.000;2023-02-11T09:20:06;103348.69;;;18.49;55.89
77161;BME280;66135;0.000;0.000;2023-02-11T09:22:31;103349.56;;;18.49;55.84
77161;BME280;66135;0.000;0.000;2023-02-11T09:24:57;103349.56;;;18.49;55.66
77161;BME280;66135;0.000;0.000;2023-02-11T09:27:22;103352.03;;;18.52;55.19
77161;BME280;66135;0.000;0.000;2023-02-11T09:29:47;103354.75;;;18.52;55.17
77161;BME280;66135;0.000;0.000;2023-02-11T09:32:13;103363.75;;;18.53;54.57
77161;BME280;66135;0.000;0.000;2023-02-11T09:34:38;103366.59;;;18.51;54.26
77161;BME280;66135;0.000;0.000;2023-02-11T09:37:03;103363.00;;;18.51;54.07
77161;BME280;66135;0.000;0.000;2023-02-11T09:39:29;103360.28;;;18.51;54.05
77161;BME280;66135;0.000;0.000;2023-02-11T09:44:26;103379.63;;;18.46;54.14
77161;BME280;66135;0.000;0.000;2023-02-11T09:46:55;103374.31;;;18.45;54.32
77161;BME280;66135;0.000;0.000;2023-02-11T09:49:29;103381.75;;;18.43;54.50
77161;BME280;66135;0.000;0.000;2023-02-11T09:52:04;103385.41;;;18.42;53.87
77161;BME280;66135;0.000;0.000;2023-02-11T09:56:59;103378.44;;;18.38;54.32
77161;BME280;66135;0.000;0.000;2023-02-11T09:59:25;103385.84;;;18.36;54.20
77161;BME280;66135;0.000;0.000;2023-02-11T10:02:01;103381.50;;;18.33;54.34
77161;BME280;66135;0.000;0.000;2023-02-11T10:12:55;103388.50;;;18.25;54.36
77161;BME280;66135;0.000;0.000;2023-02-11T10:15:44;103396.75;;;18.23;54.43
77161;BME280;66135;0.000;0.000;2023-02-11T10:18:45;103394.25;;;18.20;54.38
77161;BME280;66135;0.000;0.000;2023-02-11T10:21:27;103404.38;;;18.18;54.58
77161;BME280;66135;0.000;0.000;2023-02-11T10:23:59;103409.28;;;18.13;54.29
77161;BME280;66135;0.000;0.000;2023-02-11T10:26:29;103415.66;;;18.12;54.60
77161;BME280;66135;0.000;0.000;2023-02-11T10:29:00;103412.31;;;18.09;54.53
77161;BME280;66135;0.000;0.000;2023-02-11T10:31:36;103424.34;;;18.05;54.63
77161;BME280;66135;0.000;0.000;2023-02-11T10:34:06;103414.59;;;18.02;54.27
77161;BME280;66135;0.000;0.000;2023-02-11T10:36:34;103418.28;;;18.01;54.24
77161;BME280;66135;0.000;0.000;2023-02-11T10:39:12;103415.03;;;17.96;53.72
77161;BME280;66135;0.000;0.000;2023-02-11T10:41:43;103408.03;;;17.93;53.91
77161;BME280;66135;0.000;0.000;2023-02-11T10:44:20;103406.38;;;17.91;53.67
77161;BME280;66135;0.000;0.000;2023-02-11T10:46:47;103411.16;;;17.87;53.56
77161;BME280;66135;0.000;0.000;2023-02-11T10:49:33;103425.81;;;17.85;53.38
77161;BME280;66135;0.000;0.000;2023-02-11T10:52:19;103417.03;;;17.81;53.20
77161;BME280;66135;0.000;0.000;2023-02-11T10:55:14;103416.16;;;17.81;53.11
77161;BME280;66135;0.000;0.000;2023-02-11T10:57:47;103419.09;;;17.78;52.54
77161;BME280;66135;0.000;0.000;2023-02-11T11:00:37;103428.53;;;17.72;52.63
77161;BME280;66135;0.000;0.000;2023-02-11T11:03:22;103433.09;;;17.72;52.46
77161;BME280;66135;0.000;0.000;2023-02-11T11:05:57;103433.19;;;17.70;52.50
77161;BME280;66135;0.000;0.000;2023-02-11T11:08:45;103433.44;;;17.67;52.41
77161;BME280;66135;0.000;0.000;2023-02-11T11:11:13;103428.97;;;17.66;52.34
77161;BME280;66135;0.000;0.000;2023-02-11T11:13:41;103428.19;;;17.64;52.30
77161;BME280;66135;0.000;0.000;2023-02-11T11:16:31;103427.66;;;17.59;52.41
77161;BME280;66135;0.000;0.000;2023-02-11T11:21:50;103430.84;;;17.53;52.73
77161;BME280;66135;0.000;0.000;2023-02-11T11:24:32;103434.41;;;17.54;52.91
77161;BME280;66135;0.000;0.000;2023-02-11T11:27:03;103435.03;;;17.57;53.17
77161;BME280;66135;0.000;0.000;2023-02-11T11:29:38;103444.03;;;17.58;53.51
77161;BME280;66135;0.000;0.000;2023-02-11T11:32:29;103430.59;;;17.56;53.63
77161;BME280;66135;0.000;0.000;2023-02-11T11:35:01;103439.63;;;17.57;53.77
77161;BME280;66135;0.000;0.000;2023-02-11T11:37:30;103436.78;;;17.58;54.14
77161;BME280;66135;0.000;0.000;2023-02-11T11:42:30;103448.59;;;17.57;54.14
77161;BME280;66135;0.000;0.000;2023-02-11T11:45:25;103445.44;;;17.51;54.17
77161;BME280;66135;0.000;0.000;2023-02-11T11:53:23;103447.81;;;17.43;53.94
77161;BME280;66135;0.000;0.000;2023-02-11T11:58:27;103432.63;;;17.40;53.89
77161;BME280;66135;0.000;0.000;2023-02-11T12:01:09;103434.78;;;17.35;53.76
77161;BME280;66135;0.000;0.000;2023-02-11T12:06:40;103437.06;;;17.29;53.71
77161;BME280;66135;0.000;0.000;2023-02-11T12:09:15;103433.72;;;17.25;53.65
77161;BME280;66135;0.000;0.000;2023-02-11T12:14:42;103423.94;;;17.23;53.82
77161;BME280;66135;0.000;0.000;2023-02-11T12:17:17;103431.97;;;17.24;53.74
77161;BME280;66135;0.000;0.000;2023-02-11T12:19:52;103423.75;;;17.26;53.51
77161;BME280;66135;0.000;0.000;2023-02-11T12:22:40;103418.44;;;17.24;53.70
77161;BME280;66135;0.000;0.000;2023-02-11T12:28:16;103413.88;;;17.25;53.78
77161;BME280;66135;0.000;0.000;2023-02-11T12:33:28;103404.97;;;17.23;53.95
77161;BME280;66135;0.000;0.000;2023-02-11T12:36:04;103415.72;;;17.24;53.74
77161;BME280;66135;0.000;0.000;2023-02-11T12:41:25;103411.16;;;17.25;53.77
77161;BME280;66135;0.000;0.000;2023-02-11T12:44:41;103406.84;;;17.22;53.88
77161;BME280;66135;0.000;0.000;2023-02-11T12:49:52;103406.94;;;17.21;53.94
77161;BME280;66135;0.000;0.000;2023-02-11T12:52:35;103406.19;;;17.19;54.14
77161;BME280;66135;0.000;0.000;2023-02-11T12:57:40;103407.13;;;17.18;54.26
77161;BME280;66135;0.000;0.000;2023-02-11T13:00:12;103402.72;;;17.17;54.02
77161;BME280;66135;0.000;0.000;2023-02-11T13:02:48;103405.41;;;17.17;54.41
77161;BME280;66135;0.000;0.000;2023-02-11T13:05:37;103403.66;;;17.16;54.18
77161;BME280;66135;0.000;0.000;2023-02-11T13:08:15;103404.66;;;17.15;54.40
77161;BME280;66135;0.000;0.000;2023-02-11T13:10:46;103394.03;;;17.12;54.38
77161;BME280;66135;0.000;0.000;2023-02-11T13:13:26;103393.06;;;17.13;54.38
77161;BME280;66135;0.000;0.000;2023-02-11T13:16:05;103390.34;;;17.13;54.48
77161;BME280;66135;0.000;0.000;2023-02-11T13:23:53;103379.84;;;17.08;54.63
77161;BME280;66135;0.000;0.000;2023-02-11T13:26:53;103392.41;;;17.09;54.75
77161;BME280;66135;0.000;0.000;2023-02-11T13:29:35;103390.69;;;17.08;54.59
77161;BME280;66135;0.000;0.000;2023-02-11T13:32:10;103395.22;;;17.08;54.70
77161;BME280;66135;0.000;0.000;2023-02-11T13:37:28;103396.22;;;17.07;54.66
77161;BME280;66135;0.000;0.000;2023-02-11T13:40:02;103386.31;;;17.06;54.74
77161;BME280;66135;0.000;0.000;2023-02-11T13:42:48;103387.44;;;17.03;54.78
77161;BME280;66135;0.000;0.000;2023-02-11T13:45:35;103393.81;;;17.02;54.80
77161;BME280;66135;0.000;0.000;2023-02-11T13:48:04;103385.78;;;17.01;54.82
77161;BME280;66135;0.000;0.000;2023-02-11T13:50:38;103379.72;;;16.97;54.90
77161;BME280;66135;0.000;0.000;2023-02-11T13:53:10;103377.13;;;16.96;55.01
77161;BME280;66135;0.000;0.000;2023-02-11T13:55:36;103381.75;;;16.94;54.82
77161;BME280;66135;0.000;0.000;2023-02-11T14:00:44;103387.94;;;16.96;54.69
77161;BME280;66135;0.000;0.000;2023-02-11T14:14:26;103386.41;;;16.92;55.03
77161;BME280;66135;0.000;0.000;2023-02-11T14:19:45;103393.47;;;16.94;54.90
77161;BME280;66135;0.000;0.000;2023-02-11T14:22:25;103389.88;;;16.94;54.84
77161;BME280;66135;0.000;0.000;2023-02-11T14:24:53;103393.38;;;16.96;55.00
77161;BME280;66135;0.000;0.000;2023-02-11T14:27:22;103391.41;;;16.98;54.97
77161;BME280;66135;0.000;0.000;2023-02-11T14:32:24;103390.53;;;16.97;55.08
77161;BME280;66135;0.000;0.000;2023-02-11T14:35:07;103397.59;;;17.00;54.98
77161;BME280;66135;0.000;0.000;2023-02-11T14:37:59;103391.31;;;16.99;55.14
77161;BME280;66135;0.000;0.000;2023-02-11T14:40:48;103392.25;;;16.98;54.97
77161;BME280;66135;0.000;0.000;2023-02-11T14:43:19;103387.72;;;16.99;55.19
77161;BME280;66135;0.000;0.000;2023-02-11T14:45:49;103399.31;;;17.01;55.30
77161;BME280;66135;0.000;0.000;2023-02-11T14:48:17;103395.56;;;17.03;55.32
77161;BME280;66135;0.000;0.000;2023-02-11T14:50:52;103389.38;;;17.01;55.28
77161;BME280;66135;0.000;0.000;2023-02-11T14:53:21;103395.75;;;17.00;55.44
77161;BME280;66135;0.000;0.000;2023-02-11T14:55:49;103401.03;;;17.02;55.38
77161;BME280;66135;0.000;0.000;2023-02-11T15:03:38;103408.44;;;17.00;55.49